This is the latest recevied weather packets stored in our database for station/object UR7D-10. If no packets are shown the sender has not sent any weather packets the latest 10 day(s).
| Time | Temp. | Humidity | Pressure | Rain* | Wind** | Luminosity | Snow |
|---|---|---|---|---|---|---|---|
| 1777762983 | 11.67° C | 48% | 1022.7 hPa | 0 mm | - | - | - |
| 1777759379 | 12.78° C | 46% | 1023 hPa | 0 mm | - | - | - |
| 1777755775 | 13.89° C | 42% | 1022.6 hPa | 0 mm | - | - | - |
| 1777752173 | 13.33° C | 44% | 1022.4 hPa | 0 mm | - | - | - |
| 1777748568 | 15° C | 40% | 1022.4 hPa | 0 mm | - | - | - |
| 1777741362 | 18.33° C | 35% | 1021.2 hPa | 0 mm | - | - | - |
| 1777734156 | 19.44° C | 32% | 1021.1 hPa | 0 mm | - | - | - |
| 1777726951 | 19.44° C | 32% | 1022.1 hPa | 0 mm | - | - | - |
| 1777723347 | 18.33° C | 36% | 1022.3 hPa | 0 mm | - | - | - |
| 1777719740 | 17.78° C | 39% | 1023.2 hPa | 0 mm | - | - | - |
| 1777712534 | 16.11° C | 44% | 1024.5 hPa | 0 mm | - | - | - |
| 1777708931 | 15° C | 45% | 1024.8 hPa | 0 mm | - | - | - |
| 1777705328 | 13.33° C | 59% | 1025.1 hPa | 0 mm | - | - | - |
| 1777701724 | 8.89° C | 73% | 1024.7 hPa | 0 mm | - | - | - |
| 1777694516 | 4.44° C | 81% | 1024.3 hPa | 0 mm | - | - | - |
| 1777687309 | 6.67° C | 73% | 1024 hPa | 0 mm | - | - | - |
| 1777683706 | 6.67° C | 73% | 1024.3 hPa | 0 mm | - | - | - |
| 1777680103 | 10° C | 63% | 1024.5 hPa | 0 mm | - | - | - |
| 1777676501 | 10° C | 61% | 1024.5 hPa | 0 mm | - | - | - |
| 1777672896 | 10.56° C | 59% | 1024.9 hPa | 0 mm | - | - | - |
| 1777669294 | 11.67° C | 52% | 1024.7 hPa | 0 mm | - | - | - |
| 1777665689 | 11.67° C | 51% | 1024.7 hPa | 0 mm | - | - | - |
| 1777662085 | 13.33° C | 46% | 1024.7 hPa | 0 mm | - | - | - |
| 1777658484 | 13.89° C | 45% | 1024.1 hPa | 0 mm | - | - | - |
| 1777654879 | 14.44° C | 42% | 1024 hPa | 0 mm | - | - | - |
* Rain latest hour (hover to see other rain measurements)
** Current wind speed in m/s (hover to see current wind gust speed)